Crew | Aerofun Virtual



 METAR AND TAF INFORMATION
METAR FOR UKBB
ADDS - METARS form results

(0837 UTC 22 July 2019)
Data provider http://aviationweather.gov/metar/data/
 
METAR text: UKBB 220830Z 28005MPS 8000 -SHRA SCT022CB BKN040 21/19 Q1017 R88/CLRD// TEMPO VRB12G19MPS 1200 TSRAGR SQ BKN015CB
Conditions at: UKBB (BORISPOL'/KIEV , UA) observed 0830 UTC 22 July 2019
Temperature: 21.0°C (70°F)
Dewpoint: 19.0°C (66°F) [RH = 88%]
Pressure (altimeter): 30.03 inches Hg (1017.0 mb)
Winds: from the W (280 degrees) at 12 MPH (10 knots; 5.1 m/s)
Visibility: 5 miles ( 8 km)
Ceiling: 4000 feet AGL
Clouds: scattered clouds at 2200 feet AGL
broken clouds at 4000 feet AGL
Weather: -SHRA  (light rain showers)

METAR text: UKBB 220815Z 26007MPS 9999 VCTS -SHRA BKN040CB 23/18 Q1016 R88/D TEMPO VRB12G19MPS 3000 -TSRAGR SQ BKN015CB
Conditions at: UKBB (BORISPOL'/KIEV , UA) observed 0815 UTC 22 July 2019
Temperature: 23.0°C (73°F)
Dewpoint: 18.0°C (64°F) [RH = 73%]
Pressure (altimeter): 30.00 inches Hg (1016.0 mb)
Winds: from the W (260 degrees) at 16 MPH (14 knots; 7.2 m/s)
Visibility: 6 or more miles (10+ km)
Ceiling: 4000 feet AGL
Clouds: broken clouds at 4000 feet AGL
Weather: VCTS -SHRA  (thunderstorm in vicinity, light rain showers)

METAR text: UKBB 220800Z 27004MPS 9999 FEW040CB 26/17 Q1016 R88/CLRD// TEMPO VRB12G19MPS 3000 -TSRAGR SQ BKN015CB
Conditions at: UKBB (BORISPOL'/KIEV , UA) observed 0800 UTC 22 July 2019
Temperature: 26.0°C (79°F)
Dewpoint: 17.0°C (63°F) [RH = 58%]
Pressure (altimeter): 30.00 inches Hg (1016.0 mb)
Winds: from the W (270 degrees) at 9 MPH (8 knots; 4.1 m/s)
Visibility: 6 or more miles (10+ km)
Ceiling: at least 12,000 feet AGL
Clouds: few clouds at 4000 feet AGL
Weather: no significant weather observed at this time

Forecast for: UKBB (BORISPOL'/KIEV , UA)
Text: TAF UKBB 220501Z 2206/2306 26005G10MPS 9999 BKN030 TX27/2212Z TN14/2302Z
Forecast period: 0600 to 1800 UTC 22 July 2019
Forecast type: FROM: standard forecast or significant change
Winds: from the W (260 degrees) at 12 MPH (10 knots; 5.1 m/s)
gusting to 22 MPH (19 knots; 9.8 m/s)
Visibility: 6 or more miles 10+ km)
Ceiling: 3000 feet AGL
Clouds: broken clouds at 3000 feet AGL
Weather: no significant weather forecast for this period
Text: TEMPO 2206/2218 VRB12G19MPS 1000 TSRAGR SQ BKN007 BKN015CB
Forecast period: 0600 to 1800 UTC 22 July 2019
Forecast type: TEMPORARY: The following changes expected for less than half the time period
Winds: variable direction winds at 26 MPH (23 knots; 11.8 m/s)
gusting to 43 MPH (37 knots; 19.0 m/s)
Visibility: 0.62 miles (1.00 km)
Ceiling: 700 feet AGL
Clouds: broken clouds at 700 feet AGL
broken clouds at 1500 feet AGL
Weather: TSRA TSGR SQ  (rain associated with thunderstorm(s), hail associated with thunderstorm(s), squal)
Text: BECMG 2218/2220 31003G08MPS
Forecast period: 1800 UTC 22 July 2019 to 0600 UTC 23 July 2019
Forecast type: BECOMING: Conditions expected to become as follows by 2000 UTC 22 July 2019
Winds: from the NW (310 degrees) at 7 MPH (6 knots; 3.1 m/s)
gusting to 18 MPH (16 knots; 8.2 m/s)
Visibility: 6 or more miles 10+ km)
Ceiling: 3000 feet AGL
Clouds: broken clouds at 3000 feet AGL
Weather: no significant weather forecast for this period

 AIRPORT MAP

 RUNWAY INFORMATION
Runway 18L Runway length 13123 ft Runway width 197 ft
Runway elevation 410 ft Runway displaced threshold 0 ft Runway heading 183
Runway 36R Runway length 13123 ft Runway width 197 ft
Runway elevation 422 ft Runway displaced threshold 0 ft Runway heading 3
Runway 18R Runway length 11483 ft Runway width 206 ft
Runway elevation 419 ft Runway displaced threshold 0 ft Runway heading 183
Runway 36L Runway length 11483 ft Runway width 206 ft
Runway elevation 403 ft Runway displaced threshold 0 ft Runway heading 3

 AIRPORT FREQUENCIES
Type ATIS Name ATIS Frequency 126.7 MHZ
Type CLD Name DLV Frequency 130.275 MHZ
Type GND Name GND Frequency 118.05 MHZ
Type OPS Name OPS Frequency 131.775 MHZ
Type RDR Name KYIV RADAR Frequency 124.675 MHZ
Type TWR Name TWR Frequency 119.65 MHZ

 AIRPORT NEAR NAVIGATION AIDS
Type NDB Name Boryspil Frequency 310 KHZ
Type VOR-DME Name Boryspil Frequency 115900 KHZ
Type NDB Name Boryspil Frequency 825 KHZ
Type NDB Name Boryspil Frequency 825 KHZ
Type NDB Name Boryspil Frequency 310 KHZ